Time;durP1;ratioP1;P1;durP2;ratioP2;P2;SDS_P1;SDS_P2;PMS_P1;PMS_P2;Temp;Humidity;BMP_temperature;BMP_pressure;BME280_temperature;BME280_humidity;BME280_pressure;Samples;Min_cycle;Max_cycle;Signal;HPM_P1;HPM_P2
2023/10/14 00:02:06;;;;;;;8.23;4.25;;;18.80;82.80;;;;;;4924262;29;20108;-48
2023/10/14 00:04:33;;;;;;;9.48;4.50;;;18.80;82.70;;;;;;4924095;29;20440;-47
2023/10/14 00:07:05;;;;;;;9.85;3.85;;;18.80;82.30;;;;;;4922870;29;20408;-47
2023/10/14 00:09:37;;;;;;;10.38;4.60;;;18.80;82.40;;;;;;4924150;29;20548;-46
2023/10/14 00:12:12;;;;;;;8.73;4.00;;;18.80;82.50;;;;;;4924110;29;20032;-46
2023/10/14 00:14:38;;;;;;;6.45;3.75;;;18.80;82.70;;;;;;4923971;29;20495;-47
2023/10/14 00:17:10;;;;;;;7.85;4.22;;;18.80;83.40;;;;;;4924059;29;20039;-47
2023/10/14 00:19:36;;;;;;;7.40;4.55;;;18.70;83.80;;;;;;4923821;29;20023;-47
2023/10/14 00:22:04;;;;;;;10.20;4.22;;;18.70;84.50;;;;;;4923575;29;20099;-47
2023/10/14 00:24:30;;;;;;;7.78;3.80;;;18.70;85.10;;;;;;4923793;29;20043;-47
2023/10/14 00:26:57;;;;;;;8.50;4.00;;;18.70;85.30;;;;;;4924000;29;20019;-46
2023/10/14 00:29:23;;;;;;;6.32;3.65;;;18.60;86.30;;;;;;4933237;28;20518;-48
2023/10/14 00:31:51;;;;;;;7.03;3.72;;;18.60;86.90;;;;;;4927902;28;20031;-47
2023/10/14 00:34:18;;;;;;;8.05;3.38;;;18.60;88.20;;;;;;4931967;28;20107;-50
2023/10/14 00:36:44;;;;;;;8.00;3.70;;;18.50;89.60;;;;;;4924253;29;20402;-49
2023/10/14 00:39:12;;;;;;;11.27;3.95;;;18.40;90.90;;;;;;4928820;28;20245;-47
2023/10/14 00:41:39;;;;;;;7.72;4.57;;;18.30;91.20;;;;;;4927581;29;20032;-49
2023/10/14 00:44:04;;;;;;;9.32;4.18;;;18.30;92.00;;;;;;4919572;29;20043;-47
2023/10/14 00:46:35;;;;;;;10.75;4.35;;;18.20;92.90;;;;;;4923548;29;20028;-48
2023/10/14 00:49:02;;;;;;;7.68;4.47;;;18.20;92.70;;;;;;4923403;29;20145;-51
2023/10/14 00:51:30;;;;;;;10.43;4.90;;;18.20;93.30;;;;;;4925222;29;20027;-47
2023/10/14 00:54:01;;;;;;;7.93;3.83;;;18.10;94.30;;;;;;4921493;29;20036;-45
2023/10/14 00:56:27;;;;;;;8.05;4.28;;;18.10;94.40;;;;;;4921524;29;20027;-47
2023/10/14 00:58:58;;;;;;;8.98;4.35;;;18.00;95.60;;;;;;4923231;29;20024;-44
2023/10/14 01:01:49;;;;;;;8.50;3.92;;;18.00;96.40;;;;;;4923410;29;20042;-48
2023/10/14 01:12:16;;;;;;;12.52;4.40;;;17.80;99.90;;;;;;4932278;29;20023;-49
2023/10/14 01:14:58;;;;;;;11.70;4.47;;;17.70;99.90;;;;;;4925471;29;20019;-44
2023/10/14 01:17:29;;;;;;;9.40;5.35;;;17.60;99.90;;;;;;4927390;28;20040;-47
2023/10/14 01:20:10;;;;;;;10.95;4.65;;;17.60;99.90;;;;;;4923083;29;20689;-50
2023/10/14 01:22:38;;;;;;;10.35;4.50;;;17.50;99.90;;;;;;4923583;29;20119;-46
2023/10/14 01:25:12;;;;;;;9.65;4.80;;;17.50;99.90;;;;;;4932277;28;20063;-48
2023/10/14 01:27:38;;;;;;;9.85;4.65;;;17.50;99.90;;;;;;4923990;29;20062;-49
2023/10/14 01:30:10;;;;;;;7.20;4.47;;;17.40;99.90;;;;;;4931892;28;20115;-46
2023/10/14 01:35:24;;;;;;;9.70;4.93;;;17.40;99.90;;;;;;4926731;29;20110;-46
2023/10/14 01:37:54;;;;;;;20.48;4.70;;;17.40;99.90;;;;;;4925117;28;20105;-49
2023/10/14 01:40:27;;;;;;;8.32;3.80;;;17.40;99.90;;;;;;4926414;28;20119;-49
2023/10/14 01:43:10;;;;;;;6.32;3.90;;;17.40;99.90;;;;;;4926516;29;20241;-49
2023/10/14 01:45:47;;;;;;;5.97;3.97;;;17.50;99.90;;;;;;4930208;29;20463;-48
2023/10/14 01:48:13;;;;;;;13.23;4.50;;;17.50;99.90;;;;;;4926143;29;20493;-48
2023/10/14 01:50:46;;;;;;;6.55;3.70;;;17.40;99.90;;;;;;4929119;29;20083;-45
2023/10/14 01:53:18;;;;;;;9.40;3.88;;;17.50;99.90;;;;;;4930091;29;20071;-45
2023/10/14 01:55:45;;;;;;;12.38;4.72;;;17.50;99.90;;;;;;4930772;29;20028;-45
2023/10/14 01:58:17;;;;;;;6.05;4.43;;;17.50;99.90;;;;;;4928901;29;20054;-45
2023/10/14 02:00:46;;;;;;;6.68;4.22;;;17.50;99.90;;;;;;4926493;29;20020;-48
2023/10/14 02:03:12;;;;;;;5.32;3.63;;;17.50;99.90;;;;;;4922844;28;20421;-47
2023/10/14 02:05:40;;;;;;;11.90;4.25;;;17.50;99.90;;;;;;4920204;29;20044;-45
2023/10/14 02:08:16;;;;;;;6.82;4.10;;;17.50;99.90;;;;;;4920149;29;20020;-50
2023/10/14 02:10:50;;;;;;;;;;;17.50;99.90;;;;;;4919264;29;20544;-47
2023/10/14 02:13:19;;;;;;;9.80;4.03;;;17.50;99.90;;;;;;4921800;29;19918;-46
2023/10/14 02:15:49;;;;;;;7.28;4.22;;;17.50;99.90;;;;;;4929836;28;20094;-47
2023/10/14 02:18:20;;;;;;;8.05;4.60;;;17.50;99.90;;;;;;4926365;29;20031;-46
2023/10/14 02:20:56;;;;;;;8.38;4.13;;;17.50;99.90;;;;;;4928315;28;20043;-49
2023/10/14 02:23:29;;;;;;;;;;;17.50;99.90;;;;;;4929900;29;20130;-45
2023/10/14 02:26:00;;;;;;;8.15;4.28;;;17.50;99.90;;;;;;4928177;29;19918;-47
2023/10/14 02:28:40;;;;;;;9.00;4.95;;;17.50;99.90;;;;;;4926768;28;20500;-45
2023/10/14 02:31:15;;;;;;;6.50;3.95;;;17.50;99.90;;;;;;4923429;29;20889;-49
2023/10/14 02:33:45;;;;;;;;;;;17.50;99.90;;;;;;4920304;29;20031;-51
2023/10/14 02:36:15;;;;;;;8.07;3.92;;;17.50;99.90;;;;;;4919803;29;19918;-48
2023/10/14 02:38:42;;;;;;;7.45;3.30;;;17.50;99.90;;;;;;4918367;29;20400;-47
2023/10/14 02:41:07;;;;;;;8.85;3.85;;;17.50;99.90;;;;;;4929689;29;20493;-45
2023/10/14 02:43:36;;;;;;;8.68;3.85;;;17.50;99.90;;;;;;4928074;29;20051;-50
2023/10/14 02:46:04;;;;;;;7.53;3.83;;;17.50;99.90;;;;;;4921527;28;20047;-47
2023/10/14 02:48:52;;;;;;;7.35;3.88;;;17.50;99.90;;;;;;4917476;29;20535;-46
2023/10/14 02:51:16;;;;;;;12.10;4.63;;;17.60;99.90;;;;;;4919423;29;20289;-47
2023/10/14 02:53:42;;;;;;;10.20;4.60;;;17.60;99.90;;;;;;4921532;29;20079;-47
2023/10/14 02:56:20;;;;;;;6.93;4.38;;;17.70;99.90;;;;;;4921637;29;20034;-46
2023/10/14 02:58:45;;;;;;;9.23;4.07;;;17.70;99.90;;;;;;4919667;29;20015;-47
2023/10/14 03:01:12;;;;;;;9.07;4.35;;;17.70;99.70;;;;;;4921393;29;20551;-49
2023/10/14 03:03:42;;;;;;;9.40;4.35;;;17.80;98.70;;;;;;4921461;29;20047;-47
2023/10/14 03:06:08;;;;;;;11.18;4.65;;;17.80;98.40;;;;;;4921512;29;20135;-47
2023/10/14 03:08:34;;;;;;;10.32;4.47;;;17.90;97.50;;;;;;4925242;29;20027;-46
2023/10/14 03:11:00;;;;;;;12.00;4.95;;;17.90;97.40;;;;;;4921682;29;20111;-46
2023/10/14 03:13:29;;;;;;;7.57;3.97;;;17.90;97.00;;;;;;4929294;28;20031;-50
2023/10/14 03:15:55;;;;;;;7.88;4.10;;;17.90;96.80;;;;;;4926590;29;20027;-46
2023/10/14 03:18:21;;;;;;;8.57;4.32;;;18.00;96.10;;;;;;4923286;29;20223;-51
2023/10/14 03:23:23;;;;;;;9.43;4.32;;;18.00;95.40;;;;;;4928936;29;20448;-48
2023/10/14 03:25:56;;;;;;;8.82;3.97;;;18.10;95.00;;;;;;4932888;29;20047;-48
2023/10/14 03:28:27;;;;;;;12.32;4.88;;;18.10;94.50;;;;;;4936882;28;20488;-46
2023/10/14 03:30:56;;;;;;;9.43;4.13;;;18.10;94.50;;;;;;4932425;29;20023;-45
2023/10/14 03:33:23;;;;;;;6.68;3.95;;;18.00;94.30;;;;;;4931376;29;20031;-45
2023/10/14 03:41:42;;;;;;;8.88;4.22;;;17.90;94.70;;;;;;4926994;29;20410;-45
2023/10/14 03:44:00;;;;;;;8.73;4.20;;;17.90;94.60;;;;;;4928146;29;20042;-47
2023/10/14 03:48:56;;;;;;;8.32;5.03;;;17.90;95.00;;;;;;4929137;28;20071;-59
2023/10/14 03:51:27;;;;;;;6.80;3.78;;;17.80;95.00;;;;;;4932513;29;20503;-58
2023/10/14 03:53:54;;;;;;;9.57;4.28;;;17.80;94.90;;;;;;4931095;28;20034;-59
2023/10/14 03:56:25;;;;;;;7.30;4.28;;;17.90;94.90;;;;;;4929640;28;20059;-58
2023/10/14 03:59:00;;;;;;;12.90;4.88;;;18.00;94.70;;;;;;4924742;29;20110;-59
2023/10/14 04:04:17;;;;;;;6.95;4.05;;;18.10;94.10;;;;;;4925789;29;20420;-58
2023/10/14 04:09:37;;;;;;;8.23;4.50;;;18.20;93.20;;;;;;4924256;29;20381;-59
2023/10/14 04:12:12;;;;;;;7.88;4.35;;;18.20;92.90;;;;;;4931760;29;20051;-59
2023/10/14 04:14:39;;;;;;;9.50;4.85;;;18.30;92.70;;;;;;4933467;29;20020;-58
2023/10/14 04:17:10;;;;;;;8.38;4.45;;;18.30;92.20;;;;;;4926050;29;20047;-59
2023/10/14 04:19:47;;;;;;;13.00;4.75;;;18.40;92.40;;;;;;4929722;29;20035;-58
2023/10/14 04:30:32;;;;;;;12.60;4.22;;;18.50;90.10;;;;;;4926990;29;20410;-59
2023/10/14 04:35:31;;;;;;;11.65;4.28;;;18.50;89.20;;;;;;4931545;28;20218;-59
2023/10/14 04:37:58;;;;;;;8.88;4.07;;;18.60;88.10;;;;;;4923167;29;20016;-59
2023/10/14 04:43:11;;;;;;;7.53;3.60;;;18.60;87.00;;;;;;4923697;29;20083;-59
2023/10/14 04:45:45;;;;;;;7.22;3.63;;;18.70;86.30;;;;;;4923481;29;20071;-60
2023/10/14 04:48:12;;;;;;;8.50;4.55;;;18.70;86.30;;;;;;4921192;29;20075;-59
2023/10/14 04:50:41;;;;;;;12.25;3.78;;;18.70;86.30;;;;;;4923489;29;20190;-59
2023/10/14 04:53:07;;;;;;;8.43;4.22;;;18.70;85.50;;;;;;4923273;29;20075;-59
2023/10/14 04:55:42;;;;;;;7.85;3.85;;;18.70;84.50;;;;;;4923278;29;20444;-59
2023/10/14 05:00:42;;;;;;;7.68;3.78;;;18.70;84.20;;;;;;4923434;29;20388;-59
2023/10/14 05:03:23;;;;;;;6.32;4.00;;;18.70;84.90;;;;;;4923069;29;20031;-59
2023/10/14 05:05:52;;;;;;;10.93;4.13;;;18.70;84.20;;;;;;4925071;29;20036;-59
2023/10/14 05:08:21;;;;;;;7.72;4.50;;;18.70;83.00;;;;;;4921191;29;20559;-59
2023/10/14 05:10:51;;;;;;;8.88;4.18;;;18.80;82.10;;;;;;4921179;29;20476;-59
2023/10/14 05:13:19;;;;;;;7.32;3.78;;;18.80;83.10;;;;;;4921183;29;20107;-59
2023/10/14 05:15:53;;;;;;;11.20;3.67;;;18.80;81.90;;;;;;4920924;29;20391;-60
2023/10/14 05:18:27;;;;;;;8.23;3.92;;;18.80;83.50;;;;;;4920978;29;20024;-60
2023/10/14 05:23:19;;;;;;;13.05;4.70;;;18.70;89.30;;;;;;4924323;29;20047;-60
2023/10/14 05:25:56;;;;;;;15.07;5.65;;;18.50;93.30;;;;;;4920421;29;20393;-60
2023/10/14 05:28:29;;;;;;;10.25;4.40;;;18.10;97.40;;;;;;4919603;29;20032;-58
2023/10/14 05:30:57;;;;;;;8.30;4.57;;;17.80;99.90;;;;;;4922734;29;20045;-59
2023/10/14 05:33:23;;;;;;;9.80;5.13;;;17.50;99.90;;;;;;4930275;29;20019;-59
2023/10/14 05:35:48;;;;;;;9.60;5.28;;;17.40;99.90;;;;;;4931564;29;20053;-57
2023/10/14 05:38:15;;;;;;;11.80;5.40;;;17.20;99.90;;;;;;4924539;28;20028;-59
2023/10/14 05:40:41;;;;;;;9.57;4.72;;;17.10;99.90;;;;;;4930310;29;20054;-60
2023/10/14 05:43:07;;;;;;;9.88;4.50;;;17.00;99.90;;;;;;4927489;29;20063;-59
2023/10/14 05:45:37;;;;;;;11.20;5.00;;;17.00;99.90;;;;;;4927963;28;20027;-59
2023/10/14 05:48:09;;;;;;;8.10;4.90;;;16.90;99.90;;;;;;4930302;29;20023;-59
2023/10/14 05:50:37;;;;;;;9.55;5.50;;;16.90;99.90;;;;;;4927309;29;20031;-59
2023/10/14 05:53:07;;;;;;;8.57;4.65;;;16.80;99.90;;;;;;4929206;29;20110;-59
2023/10/14 05:55:33;;;;;;;10.57;5.57;;;16.80;99.90;;;;;;4928918;28;20111;-59
2023/10/14 05:58:00;;;;;;;8.25;4.97;;;16.80;99.90;;;;;;4927875;29;20118;-59
2023/10/14 06:00:29;;;;;;;8.30;4.70;;;16.80;99.90;;;;;;4927379;28;20122;-59
2023/10/14 06:02:57;;;;;;;7.47;4.57;;;16.70;99.90;;;;;;4926043;29;20091;-59
2023/10/14 06:05:24;;;;;;;8.05;4.80;;;16.70;99.90;;;;;;4930137;29;20057;-60
2023/10/14 06:07:59;;;;;;;10.20;5.28;;;16.70;99.90;;;;;;4928934;29;20463;-60
2023/10/14 06:10:26;;;;;;;10.43;5.10;;;16.70;99.90;;;;;;4924220;29;20027;-59
2023/10/14 06:12:52;;;;;;;9.15;4.55;;;16.60;99.90;;;;;;4930106;29;20098;-59
2023/10/14 06:15:19;;;;;;;8.55;2.95;;;16.50;99.90;;;;;;4930071;29;20452;-59
2023/10/14 06:17:45;;;;;;;4.60;2.40;;;16.40;99.90;;;;;;4927489;29;20028;-59
2023/10/14 06:20:14;;;;;;;3.13;1.85;;;16.30;99.90;;;;;;4928349;28;20051;-59
2023/10/14 06:22:41;;;;;;;2.63;1.08;;;16.10;99.90;;;;;;4929848;29;20055;-59
2023/10/14 06:25:07;;;;;;;1.27;0.85;;;16.00;99.90;;;;;;4926238;29;20091;-58
2023/10/14 06:27:33;;;;;;;2.33;0.70;;;15.80;99.90;;;;;;4931393;28;20028;-59
2023/10/14 06:29:58;;;;;;;3.30;0.88;;;15.60;99.90;;;;;;4929027;29;20130;-59
2023/10/14 06:32:24;;;;;;;1.30;0.70;;;15.40;99.90;;;;;;4928983;28;20047;-60
2023/10/14 06:34:57;;;;;;;0.77;0.70;;;15.30;99.90;;;;;;4928009;28;20395;-59
2023/10/14 06:37:24;;;;;;;2.05;0.98;;;15.20;99.90;;;;;;4926961;28;20066;-59
2023/10/14 06:39:50;;;;;;;1.08;0.82;;;15.20;99.90;;;;;;4927152;29;20020;-59
2023/10/14 06:42:19;;;;;;;1.38;0.60;;;15.20;99.90;;;;;;4928304;28;20472;-60
2023/10/14 06:44:45;;;;;;;1.77;0.68;;;15.10;99.90;;;;;;4929909;29;20103;-59
2023/10/14 06:47:11;;;;;;;0.60;0.30;;;15.00;99.90;;;;;;4925926;29;20099;-58
2023/10/14 06:49:41;;;;;;;0.95;0.80;;;14.90;99.90;;;;;;4931316;28;20090;-59
2023/10/14 06:52:07;;;;;;;1.73;0.70;;;14.80;99.90;;;;;;4928669;29;20032;-59
2023/10/14 06:54:36;;;;;;;1.90;0.80;;;14.70;99.90;;;;;;4926137;28;20504;-59
2023/10/14 06:57:07;;;;;;;2.20;0.70;;;14.70;99.90;;;;;;4929494;29;20039;-59
2023/10/14 06:59:33;;;;;;;1.00;0.73;;;14.70;99.90;;;;;;4931927;29;20019;-60
2023/10/14 07:01:59;;;;;;;1.25;0.80;;;14.70;99.90;;;;;;4931183;28;20044;-59
2023/10/14 07:04:25;;;;;;;2.78;1.00;;;14.70;99.90;;;;;;4933199;29;20027;-59
2023/10/14 07:06:51;;;;;;;2.50;0.85;;;14.70;99.90;;;;;;4933961;29;20023;-59
2023/10/14 07:09:17;;;;;;;2.72;0.98;;;14.70;99.90;;;;;;4934650;29;20027;-59
2023/10/14 07:11:46;;;;;;;1.48;0.82;;;14.60;99.90;;;;;;4930014;28;20034;-59
2023/10/14 07:14:12;;;;;;;1.77;1.00;;;14.60;99.90;;;;;;4932191;29;20086;-60
2023/10/14 07:16:38;;;;;;;10.15;1.48;;;14.60;99.90;;;;;;4929861;29;20284;-59
2023/10/14 07:19:03;;;;;;;4.00;0.90;;;14.60;99.90;;;;;;4933253;29;20027;-59
2023/10/14 07:21:32;;;;;;;2.65;0.70;;;14.50;99.90;;;;;;4930333;29;20484;-59
2023/10/14 07:24:05;;;;;;;0.63;0.60;;;14.50;99.90;;;;;;4931639;29;20047;-59
2023/10/14 07:26:36;;;;;;;2.08;0.60;;;14.50;99.90;;;;;;4933052;29;20043;-58
2023/10/14 07:29:02;;;;;;;4.03;0.90;;;14.40;99.90;;;;;;4933057;28;20075;-59
2023/10/14 07:31:30;;;;;;;2.63;0.57;;;14.50;99.90;;;;;;4929374;29;20457;-59
2023/10/14 07:34:02;;;;;;;2.65;0.93;;;14.40;99.90;;;;;;4928464;28;20051;-59
2023/10/14 07:36:28;;;;;;;1.85;0.80;;;14.50;99.90;;;;;;4929745;29;20027;-44
2023/10/14 07:39:01;;;;;;;0.98;0.77;;;14.60;99.90;;;;;;4930663;29;20117;-48
2023/10/14 07:41:26;;;;;;;1.63;0.68;;;14.60;99.90;;;;;;4928911;29;20028;-47
2023/10/14 07:43:52;;;;;;;1.05;0.88;;;14.70;99.90;;;;;;4935399;29;20034;-45
2023/10/14 07:46:17;;;;;;;2.97;0.60;;;14.70;99.90;;;;;;4932497;28;20031;-55
2023/10/14 07:48:43;;;;;;;0.95;0.60;;;14.70;99.90;;;;;;4930275;29;20040;-57
2023/10/14 07:51:09;;;;;;;2.40;0.60;;;14.70;99.90;;;;;;4930981;29;20043;-56
2023/10/14 07:53:35;;;;;;;2.42;0.70;;;14.80;99.90;;;;;;4928753;28;20106;-57
2023/10/14 07:56:01;;;;;;;2.53;0.50;;;14.80;99.90;;;;;;4928659;29;20024;-57
2023/10/14 07:58:27;;;;;;;1.10;0.50;;;14.80;99.90;;;;;;4934258;29;20421;-56
2023/10/14 08:00:54;;;;;;;6.07;0.70;;;14.80;99.90;;;;;;4931540;29;20028;-56
2023/10/14 08:03:29;;;;;;;2.72;0.80;;;14.80;99.90;;;;;;4929066;28;20547;-57
2023/10/14 08:06:05;;;;;;;2.15;0.70;;;14.80;99.90;;;;;;4932462;28;20039;-57
2023/10/14 08:08:31;;;;;;;;;;;14.60;99.90;;;;;;4932159;29;20087;-57
2023/10/14 08:10:58;;;;;;;3.25;1.10;;;14.60;99.90;;;;;;4930136;29;19911;-57
2023/10/14 08:13:24;;;;;;;2.35;0.80;;;14.70;99.90;;;;;;4932418;29;20063;-57
2023/10/14 08:15:51;;;;;;;1.27;0.70;;;14.80;99.90;;;;;;4930996;29;20031;-57
2023/10/14 08:18:19;;;;;;;6.35;1.83;;;14.80;99.90;;;;;;4929073;28;20040;-56
2023/10/14 08:20:45;;;;;;;5.25;1.42;;;14.90;99.90;;;;;;4933885;29;20038;-56
2023/10/14 08:23:11;;;;;;;2.20;1.20;;;15.10;99.90;;;;;;4930569;28;20040;-58
2023/10/14 08:25:44;;;;;;;2.42;1.10;;;15.50;99.90;;;;;;4932104;29;20023;-57
2023/10/14 08:28:10;;;;;;;2.22;0.93;;;15.80;99.90;;;;;;4928606;29;20043;-55
2023/10/14 08:30:45;;;;;;;2.50;0.77;;;16.30;99.90;;;;;;4931166;28;20031;-56
2023/10/14 08:33:14;;;;;;;1.83;0.77;;;16.60;99.90;;;;;;4932019;29;20039;-57
2023/10/14 08:35:42;;;;;;;1.60;0.70;;;16.90;99.90;;;;;;4928242;29;20071;-57
2023/10/14 08:38:19;;;;;;;3.80;0.90;;;17.10;99.30;;;;;;4927731;28;20028;-57
2023/10/14 08:40:46;;;;;;;3.05;1.35;;;17.40;93.50;;;;;;4928344;29;20253;-57
2023/10/14 08:43:19;;;;;;;2.85;1.50;;;17.60;97.60;;;;;;4930837;28;20369;-57
2023/10/14 08:45:48;;;;;;;2.22;0.98;;;17.60;91.30;;;;;;4931587;29;20551;-58
2023/10/14 08:48:18;;;;;;;2.92;1.08;;;17.80;93.70;;;;;;4928063;28;20035;-59
2023/10/14 08:50:45;;;;;;;4.13;1.38;;;17.70;91.10;;;;;;4930453;28;20032;-58
2023/10/14 08:53:12;;;;;;;5.18;1.10;;;17.60;91.30;;;;;;4927894;28;20027;-57
2023/10/14 08:55:39;;;;;;;4.80;1.42;;;17.60;87.70;;;;;;4929272;29;20020;-57
2023/10/14 08:58:07;;;;;;;5.82;1.42;;;17.50;89.00;;;;;;4929417;29;20488;-57
2023/10/14 09:00:36;;;;;;;4.65;1.50;;;17.70;89.80;;;;;;4931365;29;20550;-56
2023/10/14 09:03:06;;;;;;;5.35;1.98;;;18.00;85.30;;;;;;4927500;29;20039;-58
2023/10/14 09:05:33;;;;;;;3.95;1.80;;;18.20;86.30;;;;;;4929418;28;20036;-57
2023/10/14 09:07:58;;;;;;;5.40;2.08;;;18.30;86.10;;;;;;4927794;28;20024;-58
2023/10/14 09:10:27;;;;;;;4.13;1.23;;;18.00;77.40;;;;;;4931298;29;20024;-57
2023/10/14 09:13:03;;;;;;;4.28;1.20;;;18.00;79.30;;;;;;4920450;29;20094;-58
2023/10/14 09:15:32;;;;;;;5.20;1.83;;;18.10;80.30;;;;;;4925995;28;20023;-57
2023/10/14 09:17:58;;;;;;;5.43;1.63;;;18.20;81.00;;;;;;4923478;29;20355;-58
2023/10/14 09:20:35;;;;;;;7.28;1.80;;;18.20;81.00;;;;;;4930896;29;20114;-56
2023/10/14 09:23:16;;;;;;;6.68;1.52;;;18.00;77.20;;;;;;4928565;29;20048;-57
2023/10/14 09:25:43;;;;;;;5.72;1.63;;;17.90;77.70;;;;;;4927514;29;20047;-57
2023/10/14 09:28:09;;;;;;;4.18;1.83;;;17.80;78.60;;;;;;4930787;28;20085;-57
2023/10/14 09:30:44;;;;;;;5.97;1.85;;;18.00;77.70;;;;;;4928897;29;20121;-58
2023/10/14 09:33:15;;;;;;;4.80;1.58;;;18.30;78.10;;;;;;4926160;28;20027;-57
2023/10/14 09:35:43;;;;;;;5.32;1.77;;;18.70;78.70;;;;;;4930016;28;20023;-57
2023/10/14 09:38:09;;;;;;;7.53;1.80;;;18.80;76.80;;;;;;4922620;28;20046;-57
2023/10/14 09:40:36;;;;;;;4.68;1.85;;;18.70;75.10;;;;;;4930268;29;20118;-55
2023/10/14 09:43:03;;;;;;;6.18;1.77;;;18.70;73.70;;;;;;4927603;29;20098;-57
2023/10/14 09:45:32;;;;;;;4.53;1.67;;;18.40;72.60;;;;;;4929234;28;20023;-55
2023/10/14 09:48:01;;;;;;;3.70;1.20;;;18.20;73.70;;;;;;4930813;29;20038;-57
2023/10/14 09:50:29;;;;;;;3.90;1.20;;;18.10;73.70;;;;;;4926836;29;20027;-58
2023/10/14 09:52:55;;;;;;;5.82;1.23;;;18.00;70.90;;;;;;4932279;28;20023;-57
2023/10/14 09:55:20;;;;;;;7.10;1.40;;;17.90;71.90;;;;;;4926653;29;20042;-57
2023/10/14 09:57:47;;;;;;;6.75;1.40;;;17.70;71.90;;;;;;4930328;29;20039;-57
2023/10/14 10:00:16;;;;;;;4.10;1.17;;;17.70;70.70;;;;;;4927939;29;20439;-58
2023/10/14 10:02:44;;;;;;;5.75;1.60;;;17.60;72.70;;;;;;4928431;28;20094;-57
2023/10/14 10:05:15;;;;;;;5.57;2.10;;;17.50;72.50;;;;;;4930140;29;20098;-55
2023/10/14 10:08:07;;;;;;;5.50;1.40;;;17.60;72.90;;;;;;4927878;29;20030;-57
2023/10/14 10:10:36;;;;;;;6.70;1.83;;;17.70;71.40;;;;;;4927405;29;20023;-57
2023/10/14 10:13:02;;;;;;;4.18;1.38;;;17.80;71.80;;;;;;4922412;29;20039;-57
2023/10/14 10:15:29;;;;;;;6.80;1.95;;;18.00;71.50;;;;;;4931795;28;20023;-57
2023/10/14 10:18:03;;;;;;;5.97;1.73;;;18.20;68.80;;;;;;4929151;29;20039;-59
2023/10/14 10:20:36;;;;;;;5.18;1.10;;;18.30;68.00;;;;;;4920596;29;20030;-60
2023/10/14 10:23:02;;;;;;;4.35;1.60;;;18.20;66.70;;;;;;4923000;29;20035;-57
2023/10/14 10:25:37;;;;;;;5.50;1.60;;;18.00;68.20;;;;;;4931431;29;20031;-59
2023/10/14 10:28:26;;;;;;;8.95;1.17;;;17.90;67.00;;;;;;4923183;29;20038;-58
2023/10/14 10:30:52;;;;;;;7.13;1.60;;;17.90;67.00;;;;;;4928718;28;20028;-58
2023/10/14 10:33:18;;;;;;;6.72;1.40;;;17.70;65.20;;;;;;4923926;28;20136;-58
2023/10/14 10:36:03;;;;;;;4.45;1.13;;;17.60;66.60;;;;;;4929382;29;20039;-58
2023/10/14 10:38:36;;;;;;;8.67;1.63;;;17.60;65.20;;;;;;4927899;29;20085;-59
2023/10/14 10:41:27;;;;;;;4.30;1.17;;;17.60;64.90;;;;;;4924039;29;20279;-59
2023/10/14 10:44:00;;;;;;;5.95;1.20;;;17.70;64.20;;;;;;4925806;29;20131;-59
2023/10/14 10:46:40;;;;;;;4.25;1.38;;;17.80;64.00;;;;;;4929131;29;20035;-57
2023/10/14 10:49:06;;;;;;;3.75;1.17;;;17.70;63.60;;;;;;4923777;29;20086;-59
2023/10/14 10:51:36;;;;;;;6.30;1.10;;;17.60;65.40;;;;;;4929754;28;20019;-59
2023/10/14 10:54:02;;;;;;;5.38;1.15;;;17.50;65.00;;;;;;4924637;29;20028;-59
2023/10/14 10:56:33;;;;;;;4.53;1.30;;;17.30;63.40;;;;;;4922862;28;20031;-59
2023/10/14 10:59:01;;;;;;;5.30;1.38;;;17.10;64.80;;;;;;4929722;29;20114;-58
2023/10/14 11:01:31;;;;;;;4.10;1.67;;;16.90;65.40;;;;;;4927761;29;20043;-57
2023/10/14 11:03:58;;;;;;;7.65;1.70;;;16.80;65.80;;;;;;4926973;28;20070;-58
2023/10/14 11:06:25;;;;;;;3.13;1.08;;;16.70;66.70;;;;;;4929579;29;20035;-59
2023/10/14 11:08:51;;;;;;;4.53;1.40;;;16.80;67.00;;;;;;4926372;29;20020;-58
2023/10/14 11:11:17;;;;;;;6.90;1.35;;;16.80;66.60;;;;;;4928671;29;20515;-59
2023/10/14 11:13:43;;;;;;;7.55;1.60;;;16.80;66.60;;;;;;4931107;29;20055;-59
2023/10/14 11:16:11;;;;;;;6.93;2.10;;;16.80;65.80;;;;;;4925972;28;20407;-58
2023/10/14 11:18:46;;;;;;;5.35;1.88;;;16.70;65.90;;;;;;4929703;29;20028;-59
2023/10/14 11:21:12;;;;;;;9.40;1.50;;;16.70;65.50;;;;;;4930735;28;20030;-58
2023/10/14 11:23:39;;;;;;;6.78;1.90;;;16.80;66.50;;;;;;4928404;28;20039;-59
2023/10/14 11:26:11;;;;;;;6.38;2.05;;;16.80;66.10;;;;;;4928568;28;20246;-60
2023/10/14 11:28:37;;;;;;;6.32;1.70;;;16.80;66.40;;;;;;4926964;28;20032;-58
2023/10/14 11:31:07;;;;;;;7.25;1.40;;;16.80;66.60;;;;;;4929359;29;20495;-58
2023/10/14 11:33:35;;;;;;;4.90;1.40;;;16.80;66.40;;;;;;4926973;29;20145;-59
2023/10/14 11:36:02;;;;;;;5.25;1.50;;;16.80;66.70;;;;;;4921166;28;20020;-57
2023/10/14 11:38:30;;;;;;;7.00;1.85;;;16.80;66.80;;;;;;4929257;29;20501;-59
2023/10/14 11:40:58;;;;;;;4.35;1.38;;;16.90;66.30;;;;;;4926410;29;20507;-58
2023/10/14 11:43:24;;;;;;;4.10;1.40;;;16.90;66.10;;;;;;4928453;28;20031;-58
2023/10/14 11:45:51;;;;;;;3.95;1.50;;;17.00;65.80;;;;;;4934021;28;20036;-57
2023/10/14 11:48:47;;;;;;;2.53;1.13;;;17.00;62.50;;;;;;4930271;28;20031;-59
2023/10/14 11:51:21;;;;;;;2.50;0.98;;;16.90;61.90;;;;;;4918189;28;20516;-58
2023/10/14 11:53:52;;;;;;;8.38;1.70;;;16.70;63.50;;;;;;4926719;29;20082;-58
2023/10/14 11:56:18;;;;;;;3.67;1.25;;;16.50;63.70;;;;;;4926751;29;20512;-58
2023/10/14 11:58:45;;;;;;;9.27;1.40;;;16.30;64.10;;;;;;4931612;29;20023;-59
2023/10/14 12:01:11;;;;;;;7.97;1.77;;;16.20;65.00;;;;;;4927176;28;20040;-58
2023/10/14 12:03:37;;;;;;;7.22;1.65;;;16.10;64.90;;;;;;4930363;28;20086;-58
2023/10/14 12:06:05;;;;;;;6.47;1.20;;;16.10;65.70;;;;;;4932221;28;20035;-58
2023/10/14 12:08:32;;;;;;;6.18;1.63;;;16.20;66.00;;;;;;4929053;29;20048;-59
2023/10/14 12:10:58;;;;;;;10.93;2.20;;;16.20;62.70;;;;;;4931308;28;20027;-58
2023/10/14 12:13:27;;;;;;;3.35;1.30;;;16.20;61.50;;;;;;4933885;29;20023;-57
2023/10/14 12:15:53;;;;;;;5.03;1.00;;;16.30;60.40;;;;;;4929552;29;20032;-55
2023/10/14 12:18:20;;;;;;;8.82;1.95;;;16.30;60.00;;;;;;4927984;29;20028;-58
2023/10/14 12:20:46;;;;;;;5.97;1.33;;;16.30;60.00;;;;;;4924741;29;20724;-58
2023/10/14 12:23:19;;;;;;;9.43;1.48;;;16.50;60.50;;;;;;4931659;29;20415;-57
2023/10/14 12:25:48;;;;;;;6.55;1.50;;;16.60;59.40;;;;;;4927994;29;20035;-57
2023/10/14 12:28:25;;;;;;;5.85;1.67;;;16.70;57.70;;;;;;4928115;29;20817;-59
2023/10/14 12:30:58;;;;;;;5.57;1.73;;;16.80;58.30;;;;;;4930510;29;20067;-58
2023/10/14 12:33:35;;;;;;;2.53;1.13;;;16.80;56.80;;;;;;4927225;28;20027;-57
2023/10/14 12:36:10;;;;;;;11.20;1.48;;;16.60;52.70;;;;;;4921239;29;20016;-57
2023/10/14 12:38:43;;;;;;;9.43;2.13;;;16.40;54.70;;;;;;4931192;28;20447;-58
2023/10/14 12:41:13;;;;;;;4.40;1.67;;;16.10;55.90;;;;;;4926220;28;20515;-58
2023/10/14 12:43:42;;;;;;;6.03;1.48;;;15.90;57.40;;;;;;4931736;29;20382;-58
2023/10/14 12:48:45;;;;;;;10.18;1.80;;;15.80;55.80;;;;;;4925456;28;20035;-58
2023/10/14 12:51:20;;;;;;;9.35;1.92;;;15.80;56.10;;;;;;4931284;29;20031;-58
2023/10/14 12:53:46;;;;;;;5.88;1.77;;;15.80;55.50;;;;;;4925299;29;20020;-58
2023/10/14 12:56:16;;;;;;;4.50;1.15;;;15.70;55.20;;;;;;4925857;28;20032;-58
2023/10/14 12:58:43;;;;;;;4.55;1.30;;;15.70;56.20;;;;;;4930138;28;20016;-58
2023/10/14 13:01:16;;;;;;;6.32;1.27;;;15.80;56.00;;;;;;4927251;29;20031;-58
2023/10/14 13:03:52;;;;;;;10.30;1.48;;;15.80;56.00;;;;;;4928242;29;20046;-57
2023/10/14 13:06:23;;;;;;;4.70;1.50;;;15.80;56.10;;;;;;4924899;28;20107;-59
2023/10/14 13:08:53;;;;;;;5.55;1.55;;;15.80;57.10;;;;;;4925914;29;20051;-58
2023/10/14 13:11:19;;;;;;;5.18;1.60;;;15.90;57.10;;;;;;4928625;29;20027;-59
2023/10/14 13:13:50;;;;;;;8.82;2.25;;;16.10;57.70;;;;;;4929919;28;20400;-55
2023/10/14 13:16:18;;;;;;;6.00;1.60;;;16.20;56.20;;;;;;4929867;29;20024;-57
2023/10/14 13:18:45;;;;;;;7.80;1.80;;;16.20;57.40;;;;;;4930194;28;20123;-57
2023/10/14 13:21:14;;;;;;;10.18;1.92;;;16.20;56.10;;;;;;4927908;29;20038;-58
2023/10/14 13:23:41;;;;;;;6.25;1.83;;;16.20;57.20;;;;;;4929137;29;20046;-58
2023/10/14 13:26:09;;;;;;;5.00;1.65;;;16.30;57.50;;;;;;4925075;29;20047;-58
2023/10/14 13:28:36;;;;;;;9.15;1.75;;;16.30;57.30;;;;;;4928469;29;20500;-58
2023/10/14 13:31:04;;;;;;;5.38;1.48;;;16.30;57.60;;;;;;4926654;29;20551;-58
2023/10/14 13:33:30;;;;;;;6.63;1.70;;;16.20;57.30;;;;;;4925297;28;20039;-57
2023/10/14 13:35:56;;;;;;;6.15;1.73;;;16.10;57.40;;;;;;4927700;28;20046;-54
2023/10/14 13:38:22;;;;;;;5.78;1.50;;;16.10;57.70;;;;;;4925473;28;20119;-59
2023/10/14 13:40:50;;;;;;;3.20;0.95;;;16.10;57.90;;;;;;4927747;29;20108;-58
2023/10/14 13:43:17;;;;;;;6.00;1.67;;;16.10;57.90;;;;;;4929514;28;20028;-58
2023/10/14 13:45:43;;;;;;;6.45;1.38;;;16.10;57.70;;;;;;4930380;29;20499;-59